sensor_id;sensor_type;location;lat;lon;timestamp;pressure;altitude;pressure_sealevel;temperature;humidity
56414;BME280;42318;48.452;19.526;2023-01-26T00:07:27;98974.41;;;18.96;51.04
56414;BME280;42318;48.452;19.526;2023-01-26T00:14:58;98963.78;;;18.95;50.81
56414;BME280;42318;48.452;19.526;2023-01-26T00:22:29;98964.63;;;18.95;50.93
56414;BME280;42318;48.452;19.526;2023-01-26T00:30:00;98970.03;;;18.95;51.06
56414;BME280;42318;48.452;19.526;2023-01-26T00:37:31;98954.00;;;18.94;50.92
56414;BME280;42318;48.452;19.526;2023-01-26T00:45:02;98949.97;;;18.96;51.00
56414;BME280;42318;48.452;19.526;2023-01-26T00:52:33;98959.19;;;18.95;50.75
56414;BME280;42318;48.452;19.526;2023-01-26T01:00:04;98946.66;;;18.94;50.94
56414;BME280;42318;48.452;19.526;2023-01-26T01:07:36;98941.25;;;18.94;50.54
56414;BME280;42318;48.452;19.526;2023-01-26T01:15:07;98939.59;;;18.93;50.93
56414;BME280;42318;48.452;19.526;2023-01-26T01:22:38;98935.22;;;18.92;50.96
56414;BME280;42318;48.452;19.526;2023-01-26T01:30:09;98922.47;;;18.93;50.81
56414;BME280;42318;48.452;19.526;2023-01-26T01:37:40;98917.88;;;18.93;50.71
56414;BME280;42318;48.452;19.526;2023-01-26T01:45:37;98909.13;;;18.91;50.92
56414;BME280;42318;48.452;19.526;2023-01-26T01:53:14;98904.75;;;18.90;50.74
56414;BME280;42318;48.452;19.526;2023-01-26T02:00:47;98902.63;;;18.92;50.77
56414;BME280;42318;48.452;19.526;2023-01-26T02:08:18;98881.16;;;18.91;50.85
56414;BME280;42318;48.452;19.526;2023-01-26T02:15:50;98874.66;;;18.92;50.52
56414;BME280;42318;48.452;19.526;2023-01-26T02:23:48;98856.47;;;18.92;50.70
56414;BME280;42318;48.452;19.526;2023-01-26T02:31:22;98852.13;;;18.91;50.75
56414;BME280;42318;48.452;19.526;2023-01-26T02:46:42;98820.34;;;18.92;50.77
56414;BME280;42318;48.452;19.526;2023-01-26T02:54:13;98814.09;;;18.91;50.59
56414;BME280;42318;48.452;19.526;2023-01-26T03:02:03;98812.44;;;18.90;50.59
56414;BME280;42318;48.452;19.526;2023-01-26T03:09:34;98813.03;;;18.92;50.64
56414;BME280;42318;48.452;19.526;2023-01-26T03:17:05;98807.59;;;18.92;50.47
56414;BME280;42318;48.452;19.526;2023-01-26T03:24:36;98807.59;;;18.92;50.94
56414;BME280;42318;48.452;19.526;2023-01-26T03:32:25;98787.78;;;18.92;50.88
56414;BME280;42318;48.452;19.526;2023-01-26T03:39:56;98793.78;;;18.94;50.99
56414;BME280;42318;48.452;19.526;2023-01-26T03:47:45;98780.22;;;18.94;51.14
56414;BME280;42318;48.452;19.526;2023-01-26T03:55:34;98770.16;;;18.94;51.05
56414;BME280;42318;48.452;19.526;2023-01-26T04:03:24;98759.31;;;18.94;50.96
56414;BME280;42318;48.452;19.526;2023-01-26T04:11:14;98751.16;;;18.94;50.75
56414;BME280;42318;48.452;19.526;2023-01-26T04:18:44;98751.16;;;18.94;50.84
56414;BME280;42318;48.452;19.526;2023-01-26T04:26:35;98735.13;;;18.93;50.90
56414;BME280;42318;48.452;19.526;2023-01-26T04:34:10;98729.44;;;18.94;50.77
56414;BME280;42318;48.452;19.526;2023-01-26T04:41:41;98732.16;;;18.94;50.40
56414;BME280;42318;48.452;19.526;2023-01-26T04:49:12;98734.06;;;18.94;50.54
56414;BME280;42318;48.452;19.526;2023-01-26T04:56:43;98722.38;;;18.93;50.73
56414;BME280;42318;48.452;19.526;2023-01-26T05:04:13;98722.59;;;18.92;50.56
56414;BME280;42318;48.452;19.526;2023-01-26T05:11:44;98728.84;;;18.92;50.64
56414;BME280;42318;48.452;19.526;2023-01-26T05:19:15;98731.56;;;18.92;50.54
56414;BME280;42318;48.452;19.526;2023-01-26T05:26:46;98729.44;;;18.94;50.78
56414;BME280;42318;48.452;19.526;2023-01-26T05:34:17;98728.03;;;18.92;50.65
56414;BME280;42318;48.452;19.526;2023-01-26T05:41:47;98725.31;;;18.92;50.63
56414;BME280;42318;48.452;19.526;2023-01-26T05:49:18;98720.97;;;18.91;50.67
56414;BME280;42318;48.452;19.526;2023-01-26T05:56:49;98728.28;;;18.90;50.34
56414;BME280;42318;48.452;19.526;2023-01-26T06:04:20;98735.34;;;18.91;50.41
56414;BME280;42318;48.452;19.526;2023-01-26T06:11:51;98729.94;;;18.91;50.42
56414;BME280;42318;48.452;19.526;2023-01-26T06:19:22;98732.06;;;18.89;50.29
56414;BME280;42318;48.452;19.526;2023-01-26T06:26:53;98729.09;;;18.91;50.23
56414;BME280;42318;48.452;19.526;2023-01-26T06:34:24;98730.16;;;18.90;50.43
56414;BME280;42318;48.452;19.526;2023-01-26T06:41:54;98728.28;;;18.90;50.27
56414;BME280;42318;48.452;19.526;2023-01-26T06:49:25;98731.56;;;18.92;50.21
56414;BME280;42318;48.452;19.526;2023-01-26T06:56:56;98726.38;;;18.91;50.10
56414;BME280;42318;48.452;19.526;2023-01-26T07:04:27;98719.88;;;18.92;50.33
56414;BME280;42318;48.452;19.526;2023-01-26T07:11:57;98713.88;;;18.90;50.22
56414;BME280;42318;48.452;19.526;2023-01-26T07:19:28;98703.84;;;18.90;50.20
56414;BME280;42318;48.452;19.526;2023-01-26T07:27:00;98708.22;;;18.91;50.36
56414;BME280;42318;48.452;19.526;2023-01-26T07:34:31;98702.78;;;18.91;50.20
56414;BME280;42318;48.452;19.526;2023-01-26T07:42:02;98702.78;;;18.91;50.21
56414;BME280;42318;48.452;19.526;2023-01-26T07:49:33;98703.84;;;18.90;50.42
56414;BME280;42318;48.452;19.526;2023-01-26T07:57:04;98707.38;;;18.91;50.19
56414;BME280;42318;48.452;19.526;2023-01-26T08:04:36;98710.09;;;18.91;50.23
56414;BME280;42318;48.452;19.526;2023-01-26T08:12:07;98715.78;;;18.89;50.05
56414;BME280;42318;48.452;19.526;2023-01-26T08:19:39;98710.34;;;18.89;50.09
56414;BME280;42318;48.452;19.526;2023-01-26T08:27:09;98710.34;;;18.89;49.99
56414;BME280;42318;48.452;19.526;2023-01-26T08:34:40;98704.91;;;18.89;50.15
56414;BME280;42318;48.452;19.526;2023-01-26T08:42:11;98709.28;;;18.90;50.33
56414;BME280;42318;48.452;19.526;2023-01-26T08:49:42;98701.63;;;18.87;50.25
56414;BME280;42318;48.452;19.526;2023-01-26T08:57:12;98700.31;;;18.90;50.07
56414;BME280;42318;48.452;19.526;2023-01-26T09:04:43;98692.97;;;18.90;50.04
56414;BME280;42318;48.452;19.526;2023-01-26T09:12:14;98700.31;;;18.90;49.86
56414;BME280;42318;48.452;19.526;2023-01-26T09:19:44;98678.59;;;18.90;49.99
56414;BME280;42318;48.452;19.526;2023-01-26T09:27:15;98682.13;;;18.90;50.05
56414;BME280;42318;48.452;19.526;2023-01-26T09:34:46;98685.66;;;18.91;49.80
56414;BME280;42318;48.452;19.526;2023-01-26T09:49:59;98675.88;;;18.90;49.99
56414;BME280;42318;48.452;19.526;2023-01-26T09:57:42;98654.41;;;18.88;49.81
56414;BME280;42318;48.452;19.526;2023-01-26T10:12:49;98654.16;;;18.90;49.59
56414;BME280;42318;48.452;19.526;2023-01-26T10:20:35;98652.25;;;18.90;49.76
56414;BME280;42318;48.452;19.526;2023-01-26T10:28:16;98645.75;;;18.91;49.78
56414;BME280;42318;48.452;19.526;2023-01-26T10:35:47;98641.41;;;18.90;49.88
56414;BME280;42318;48.452;19.526;2023-01-26T10:43:18;98635.97;;;18.90;49.85
56414;BME280;42318;48.452;19.526;2023-01-26T10:50:49;98622.41;;;18.90;49.84
56414;BME280;42318;48.452;19.526;2023-01-26T10:58:40;98615.91;;;18.91;49.70
56414;BME280;42318;48.452;19.526;2023-01-26T11:06:16;98595.00;;;18.92;49.69
56414;BME280;42318;48.452;19.526;2023-01-26T11:14:08;98586.03;;;18.91;49.91
56414;BME280;42318;48.452;19.526;2023-01-26T11:22:29;98582.50;;;18.91;49.97
56414;BME280;42318;48.452;19.526;2023-01-26T11:38:08;98566.19;;;18.91;49.92
56414;BME280;42318;48.452;19.526;2023-01-26T12:01:22;98526.53;;;18.90;49.85
56414;BME280;42318;48.452;19.526;2023-01-26T12:24:24;98512.97;;;18.90;49.95
56414;BME280;42318;48.452;19.526;2023-01-26T12:32:00;98501.88;;;18.91;49.53
56414;BME280;42318;48.452;19.526;2023-01-26T12:40:08;98499.16;;;18.91;49.75
56414;BME280;42318;48.452;19.526;2023-01-26T12:47:53;98486.38;;;18.92;49.62
56414;BME280;42318;48.452;19.526;2023-01-26T12:55:31;98489.34;;;18.90;49.55
56414;BME280;42318;48.452;19.526;2023-01-26T13:03:33;98487.47;;;18.91;49.71
56414;BME280;42318;48.452;19.526;2023-01-26T13:11:08;98486.38;;;18.92;49.55
56414;BME280;42318;48.452;19.526;2023-01-26T13:18:53;98484.75;;;18.91;49.68
56414;BME280;42318;48.452;19.526;2023-01-26T13:26:43;98476.59;;;18.91;49.69
56414;BME280;42318;48.452;19.526;2023-01-26T13:34:15;98478.50;;;18.90;49.64
56414;BME280;42318;48.452;19.526;2023-01-26T13:41:49;98470.34;;;18.90;49.46
56414;BME280;42318;48.452;19.526;2023-01-26T13:49:26;98463.84;;;18.91;49.50
56414;BME280;42318;48.452;19.526;2023-01-26T13:57:05;98461.13;;;18.91;49.48
56414;BME280;42318;48.452;19.526;2023-01-26T14:04:36;98471.16;;;18.91;50.00
56414;BME280;42318;48.452;19.526;2023-01-26T14:12:17;98464.94;;;18.90;49.39
56414;BME280;42318;48.452;19.526;2023-01-26T14:19:51;98470.59;;;18.89;49.51
56414;BME280;42318;48.452;19.526;2023-01-26T14:27:33;98464.94;;;18.90;49.54
56414;BME280;42318;48.452;19.526;2023-01-26T14:35:20;98467.63;;;18.90;49.39
56414;BME280;42318;48.452;19.526;2023-01-26T14:42:54;98467.63;;;18.90;49.49
56414;BME280;42318;48.452;19.526;2023-01-26T14:50:28;98467.63;;;18.90;49.40
56414;BME280;42318;48.452;19.526;2023-01-26T14:58:12;98464.34;;;18.88;49.60
56414;BME280;42318;48.452;19.526;2023-01-26T15:05:43;98458.91;;;18.88;49.36
56414;BME280;42318;48.452;19.526;2023-01-26T15:28:24;98469.53;;;18.90;49.43
56414;BME280;42318;48.452;19.526;2023-01-26T15:35:56;98454.31;;;18.89;49.33
56414;BME280;42318;48.452;19.526;2023-01-26T15:43:27;98467.38;;;18.92;49.28
56414;BME280;42318;48.452;19.526;2023-01-26T15:50:58;98464.94;;;18.90;49.37
56414;BME280;42318;48.452;19.526;2023-01-26T15:58:29;98464.09;;;18.90;49.27
56414;BME280;42318;48.452;19.526;2023-01-26T16:06:04;98464.34;;;18.88;49.38
56414;BME280;42318;48.452;19.526;2023-01-26T16:13:35;98467.31;;;18.87;49.54
56414;BME280;42318;48.452;19.526;2023-01-26T16:21:20;98458.34;;;18.86;49.29
56414;BME280;42318;48.452;19.526;2023-01-26T16:28:51;98466.25;;;18.88;49.36
56414;BME280;42318;48.452;19.526;2023-01-26T16:36:23;98460.00;;;18.87;49.36
56414;BME280;42318;48.452;19.526;2023-01-26T16:43:56;98461.88;;;18.87;49.17
56414;BME280;42318;48.452;19.526;2023-01-26T16:51:29;98457.28;;;18.87;49.33
56414;BME280;42318;48.452;19.526;2023-01-26T16:59:00;98456.47;;;18.87;49.32
56414;BME280;42318;48.452;19.526;2023-01-26T17:06:31;98446.66;;;18.86;49.43
56414;BME280;42318;48.452;19.526;2023-01-26T17:14:02;98454.56;;;18.87;49.25
56414;BME280;42318;48.452;19.526;2023-01-26T17:21:33;98455.63;;;18.86;49.30
56414;BME280;42318;48.452;19.526;2023-01-26T17:29:04;98445.28;;;18.83;49.20
56414;BME280;42318;48.452;19.526;2023-01-26T17:36:35;98445.28;;;18.83;49.52
56414;BME280;42318;48.452;19.526;2023-01-26T17:44:05;98436.06;;;18.84;48.86
56414;BME280;42318;48.452;19.526;2023-01-26T17:51:36;98437.13;;;18.83;49.60
56414;BME280;42318;48.452;19.526;2023-01-26T17:59:07;98443.63;;;18.82;49.27
56414;BME280;42318;48.452;19.526;2023-01-26T18:06:38;98444.69;;;18.81;49.35
56414;BME280;42318;48.452;19.526;2023-01-26T18:14:09;98439.28;;;18.81;49.33
56414;BME280;42318;48.452;19.526;2023-01-26T18:21:40;98429.47;;;18.80;49.49
56414;BME280;42318;48.452;19.526;2023-01-26T18:29:10;98423.00;;;18.81;49.45
56414;BME280;42318;48.452;19.526;2023-01-26T18:36:41;98411.56;;;18.79;49.17
56414;BME280;42318;48.452;19.526;2023-01-26T18:44:12;98426.19;;;18.78;49.41
56414;BME280;42318;48.452;19.526;2023-01-26T18:51:43;98420.78;;;18.78;49.22
56414;BME280;42318;48.452;19.526;2023-01-26T18:59:17;98421.34;;;18.80;49.26
56414;BME280;42318;48.452;19.526;2023-01-26T19:06:48;98418.06;;;18.78;49.65
56414;BME280;42318;48.452;19.526;2023-01-26T19:14:19;98418.63;;;18.80;49.61
56414;BME280;42318;48.452;19.526;2023-01-26T19:21:49;98411.81;;;18.77;49.52
56414;BME280;42318;48.452;19.526;2023-01-26T19:29:20;98410.47;;;18.80;49.80
56414;BME280;42318;48.452;19.526;2023-01-26T19:36:51;98419.44;;;18.80;49.57
56414;BME280;42318;48.452;19.526;2023-01-26T19:44:22;98424.06;;;18.80;49.46
56414;BME280;42318;48.452;19.526;2023-01-26T19:51:52;98409.91;;;18.78;49.50
56414;BME280;42318;48.452;19.526;2023-01-26T19:59:24;98419.44;;;18.80;49.48
56414;BME280;42318;48.452;19.526;2023-01-26T20:06:56;98405.06;;;18.80;49.56
56414;BME280;42318;48.452;19.526;2023-01-26T20:14:29;98403.66;;;18.77;49.35
56414;BME280;42318;48.452;19.526;2023-01-26T20:22:00;98412.06;;;18.76;49.29
56414;BME280;42318;48.452;19.526;2023-01-26T20:29:32;98393.88;;;18.76;49.32
56414;BME280;42318;48.452;19.526;2023-01-26T20:37:02;98387.88;;;18.74;49.53
56414;BME280;42318;48.452;19.526;2023-01-26T20:44:33;98387.88;;;18.74;49.37
56414;BME280;42318;48.452;19.526;2023-01-26T20:52:04;98381.63;;;18.74;49.48
56414;BME280;42318;48.452;19.526;2023-01-26T20:59:37;98380.56;;;18.75;49.47
56414;BME280;42318;48.452;19.526;2023-01-26T21:07:08;98375.13;;;18.75;49.51
56414;BME280;42318;48.452;19.526;2023-01-26T21:14:39;98352.84;;;18.73;49.41
56414;BME280;42318;48.452;19.526;2023-01-26T21:22:09;98371.59;;;18.74;49.31
56414;BME280;42318;48.452;19.526;2023-01-26T21:29:40;98367.50;;;18.72;49.42
56414;BME280;42318;48.452;19.526;2023-01-26T21:37:11;98369.13;;;18.73;49.46
56414;BME280;42318;48.452;19.526;2023-01-26T21:44:42;98364.53;;;18.73;49.29
56414;BME280;42318;48.452;19.526;2023-01-26T21:52:31;98355.00;;;18.71;48.90
56414;BME280;42318;48.452;19.526;2023-01-26T22:00:21;98356.63;;;18.72;49.31
56414;BME280;42318;48.452;19.526;2023-01-26T22:07:51;98349.56;;;18.71;49.47
56414;BME280;42318;48.452;19.526;2023-01-26T22:15:22;98346.03;;;18.70;49.36
56414;BME280;42318;48.452;19.526;2023-01-26T22:22:53;98336.25;;;18.69;49.42
56414;BME280;42318;48.452;19.526;2023-01-26T22:30:23;98322.91;;;18.68;49.53
56414;BME280;42318;48.452;19.526;2023-01-26T22:37:54;98317.75;;;18.66;49.44
56414;BME280;42318;48.452;19.526;2023-01-26T22:45:25;98317.50;;;18.68;49.27
56414;BME280;42318;48.452;19.526;2023-01-26T22:52:56;98318.31;;;18.68;49.40
56414;BME280;42318;48.452;19.526;2023-01-26T23:00:27;98315.59;;;18.68;49.26
56414;BME280;42318;48.452;19.526;2023-01-26T23:07:58;98299.31;;;18.68;49.20
56414;BME280;42318;48.452;19.526;2023-01-26T23:15:29;98281.97;;;18.69;49.61
56414;BME280;42318;48.452;19.526;2023-01-26T23:23:00;98275.72;;;18.69;49.44
56414;BME280;42318;48.452;19.526;2023-01-26T23:30:31;98278.44;;;18.69;49.42
56414;BME280;42318;48.452;19.526;2023-01-26T23:38:01;98277.34;;;18.70;49.58
56414;BME280;42318;48.452;19.526;2023-01-26T23:45:33;98281.16;;;18.69;49.34
56414;BME280;42318;48.452;19.526;2023-01-26T23:53:04;98274.06;;;18.68;49.28
